KMOR

Moore-Murrell Airport

Morristown, Tennessee, USA
METAR KMOR 181515Z AUTO 00000KT 10SM CLR M09/M12 A3050 RMK A01
Observed Flight Rules
Jan-18 @ 15:15 UTC (16 minutes ago) Visual Flight Rules
Wind Visibility Clouds
Calm 10 miles
  • Clear skies
Temperatures Readings
Current -9°C / 16°F
Dewpoint -12°C / 10°F
Humidity 79%
Altimeter 30.5" Hg
Pressure 1033 hPa
Elevation 400
METAR KMOR 181515Z AUTO 00000KT 10SM CLR M09/M12 A3050 RMK A01
Observed Flight Rules
Jan-18 @ 15:15 UTC
(16 minutes ago)
VFR
Wind Visibility
Calm 10 miles
Clouds
  • Clear skies
Temperature Dewpoint
-9°C / 16°F -12°C / 10°F
Humidity Altimeter Pressure
79% 30.5" Hg 1033 hPa